Thunder radar more information blitzortung!


Radar de pluja more information rain snow radar


Visita la nostra xarxa de llocs de meteo:

Template documentation
and downloads

And another site



No particular awareness of the weather is required.    There are no Weather-warnings

Pagina Historial Weather Underground text

Diari Resum Juny 27, 2017 Unitats:  Tant    Imperial   Mètric
« Previous Dia
SegĂźent Dia »
Diari Setmana Mensual Anual Personalitzada
  Maxima: Minima: Media:
Temperatura: 86.4 °F /  30.2 °C 68.9 °F /  20.5 °C 78.3 °F /  25.7 °C
Punt de rosada: 66.9 °F /  19.4 °C 59.5 °F /  15.3 °C 63.9 °F /  17.7 °C
Humitat: 79 % 47 % 62 %
Wind Speed: 12.7 mph /  20.4 km/h - 4.1 mph /  6.6 km/h
RĂ fegues de vent: 13 mph /  20.9 km/h - -
Vent:- - SSE
Pression baro: 29.8 in /  1008.0 hPa 29.6 in /  1000.9 hPa -
Precipitacions: 0 in /  0.0 mm    
Historical Graphs
 
 
Dades de taula per Juny 27, 2017
Temps Temperatura Punt de rosada Pression baro Vent Wind Speed RĂ fegues de vent Humitat Rainfall Rate (Hourly)
00:00 70.2 °F /  21.2 °C 60.3 °F /  15.7 °C 29.8 in /  1008.0 hPa NNE 1 mph /  1.6 km/h   71 % 0 in /  0.0 mm
00:01 75.9 °F /  24.4 °C 59.5 °F /  15.3 °C 29.8 in /  1008.0 hPa West 3.5 mph /  5.6 km/h 3.5 mph /  5.6 km/h 57 % 0 in /  0.0 mm
00:06 75.9 °F /  24.4 °C 59.5 °F /  15.3 °C 29.8 in /  1008.0 hPa WSW 3.5 mph /  5.6 km/h 3.5 mph /  5.6 km/h 57 % 0 in /  0.0 mm
00:10 70.2 °F /  21.2 °C 60.6 °F /  15.9 °C 29.8 in /  1008.0 hPa Calm     72 % 0 in /  0.0 mm
00:20 70.2 °F /  21.2 °C 60.6 °F /  15.9 °C 29.8 in /  1008.0 hPa NNW 1 mph /  1.6 km/h 2 mph /  3.2 km/h 72 % 0 in /  0.0 mm
00:30 70.2 °F /  21.2 °C 60.6 °F /  15.9 °C 29.8 in /  1008.0 hPa Calm   1 mph /  1.6 km/h 72 % 0 in /  0.0 mm
00:40 69.8 °F /  21.0 °C 60.8 °F /  16.0 °C 29.8 in /  1008.0 hPa Calm   1 mph /  1.6 km/h 73 % 0 in /  0.0 mm
00:50 69.6 °F /  20.9 °C 60.6 °F /  15.9 °C 29.7 in /  1007.0 hPa Calm     73 % 0 in /  0.0 mm
01:00 69.6 °F /  20.9 °C 60.6 °F /  15.9 °C 29.7 in /  1007.0 hPa Calm   1 mph /  1.6 km/h 73 % 0 in /  0.0 mm
01:10 69.6 °F /  20.9 °C 61 °F /  16.1 °C 29.7 in /  1007.0 hPa Calm   1 mph /  1.6 km/h 74 % 0 in /  0.0 mm
01:20 69.6 °F /  20.9 °C 60.6 °F /  15.9 °C 29.7 in /  1007.0 hPa NNE 2 mph /  3.2 km/h 2 mph /  3.2 km/h 73 % 0 in /  0.0 mm
01:30 69.4 °F /  20.8 °C 60.8 °F /  16.0 °C 29.7 in /  1007.0 hPa NE 1 mph /  1.6 km/h 2 mph /  3.2 km/h 74 % 0 in /  0.0 mm
01:40 69.3 °F /  20.7 °C 60.6 °F /  15.9 °C 29.7 in /  1007.0 hPa Calm   1 mph /  1.6 km/h 74 % 0 in /  0.0 mm
01:50 68.9 °F /  20.5 °C 59.9 °F /  15.5 °C 29.7 in /  1007.0 hPa NNE 1 mph /  1.6 km/h 1 mph /  1.6 km/h 73 % 0 in /  0.0 mm
02:00 68.9 °F /  20.5 °C 60.3 °F /  15.7 °C 29.7 in /  1007.0 hPa WNW 1 mph /  1.6 km/h 1 mph /  1.6 km/h 74 % 0 in /  0.0 mm
02:10 69.3 °F /  20.7 °C 60.6 °F /  15.9 °C 29.7 in /  1007.0 hPa WSW 1 mph /  1.6 km/h 2 mph /  3.2 km/h 74 % 0 in /  0.0 mm
02:20 69.6 °F /  20.9 °C 61 °F /  16.1 °C 29.7 in /  1007.0 hPa Calm   1 mph /  1.6 km/h 74 % 0 in /  0.0 mm
02:30 70 °F /  21.1 °C 61.3 °F /  16.3 °C 29.7 in /  1007.0 hPa East 1 mph /  1.6 km/h 2 mph /  3.2 km/h 74 % 0 in /  0.0 mm
02:40 70.2 °F /  21.2 °C 61.5 °F /  16.4 °C 29.7 in /  1007.0 hPa Calm   1 mph /  1.6 km/h 74 % 0 in /  0.0 mm
02:50 71.2 °F /  21.8 °C 62.4 °F /  16.9 °C 29.8 in /  1008.0 hPa North 1 mph /  1.6 km/h 3 mph /  4.8 km/h 74 % 0 in /  0.0 mm
03:00 70.7 °F /  21.5 °C 61.5 °F /  16.4 °C 29.8 in /  1008.0 hPa NE 2 mph /  3.2 km/h 3 mph /  4.8 km/h 73 % 0 in /  0.0 mm
03:10 70.7 °F /  21.5 °C 61.5 °F /  16.4 °C 29.8 in /  1008.0 hPa NE 1 mph /  1.6 km/h 3 mph /  4.8 km/h 73 % 0 in /  0.0 mm
03:20 71.1 °F /  21.7 °C 61.5 °F /  16.4 °C 29.8 in /  1008.0 hPa NE 1 mph /  1.6 km/h 2 mph /  3.2 km/h 72 % 0 in /  0.0 mm
03:30 71.2 °F /  21.8 °C 61.3 °F /  16.3 °C 29.8 in /  1008.0 hPa NE 2 mph /  3.2 km/h 3 mph /  4.8 km/h 71 % 0 in /  0.0 mm
03:40 71.4 °F /  21.9 °C 61.5 °F /  16.4 °C 29.8 in /  1008.0 hPa NE 2 mph /  3.2 km/h 3 mph /  4.8 km/h 71 % 0 in /  0.0 mm
03:50 72.1 °F /  22.3 °C 61.9 °F /  16.6 °C 29.8 in /  1008.0 hPa NE 1 mph /  1.6 km/h 4 mph /  6.4 km/h 70 % 0 in /  0.0 mm
04:00 72.3 °F /  22.4 °C 62.1 °F /  16.7 °C 29.8 in /  1008.0 hPa NE 1 mph /  1.6 km/h 4 mph /  6.4 km/h 70 % 0 in /  0.0 mm
04:10 73 °F /  22.8 °C 62.8 °F /  17.1 °C 29.8 in /  1008.0 hPa NE 2 mph /  3.2 km/h 2 mph /  3.2 km/h 70 % 0 in /  0.0 mm
04:20 74.3 °F /  23.5 °C 63.5 °F /  17.5 °C 29.8 in /  1008.0 hPa NE 1 mph /  1.6 km/h 2 mph /  3.2 km/h 69 % 0 in /  0.0 mm
04:30 75.4 °F /  24.1 °C 64 °F /  17.8 °C 29.8 in /  1008.0 hPa NNE 1 mph /  1.6 km/h 3 mph /  4.8 km/h 68 % 0 in /  0.0 mm
04:40 75.2 °F /  24.0 °C 64.2 °F /  17.9 °C 29.8 in /  1008.0 hPa ENE 2 mph /  3.2 km/h 3 mph /  4.8 km/h 69 % 0 in /  0.0 mm
04:50 75.9 °F /  24.4 °C 64.6 °F /  18.1 °C 29.8 in /  1008.0 hPa East 3 mph /  4.8 km/h 3 mph /  4.8 km/h 68 % 0 in /  0.0 mm
05:00 77.4 °F /  25.2 °C 65.5 °F /  18.6 °C 29.8 in /  1008.0 hPa ESE 2 mph /  3.2 km/h 4 mph /  6.4 km/h 67 % 0 in /  0.0 mm
05:10 78.8 °F /  26.0 °C 66 °F /  18.9 °C 29.8 in /  1008.0 hPa SSE 2 mph /  3.2 km/h 3 mph /  4.8 km/h 65 % 0 in /  0.0 mm
05:20 79.2 °F /  26.2 °C 65.8 °F /  18.8 °C 29.8 in /  1008.0 hPa SSE 3 mph /  4.8 km/h 4 mph /  6.4 km/h 64 % 0 in /  0.0 mm
05:30 78.6 °F /  25.9 °C 65.5 °F /  18.6 °C 29.8 in /  1008.0 hPa ESE 3 mph /  4.8 km/h 4 mph /  6.4 km/h 64 % 0 in /  0.0 mm
05:40 79.3 °F /  26.3 °C 65.7 °F /  18.7 °C 29.7 in /  1007.0 hPa East 2 mph /  3.2 km/h 6 mph /  9.7 km/h 63 % 0 in /  0.0 mm
05:50 79.7 °F /  26.5 °C 66.4 °F /  19.1 °C 29.7 in /  1007.0 hPa East 3 mph /  4.8 km/h 5 mph /  8.0 km/h 64 % 0 in /  0.0 mm
09:00 82.6 °F /  28.1 °C 64.8 °F /  18.2 °C 29.7 in /  1006.0 hPa ESE 7 mph /  11.3 km/h 7 mph /  11.3 km/h 55 % 0 in /  0.0 mm
09:10 82.4 °F /  28.0 °C 64 °F /  17.8 °C 29.7 in /  1006.0 hPa ESE 9 mph /  14.5 km/h 13 mph /  20.9 km/h 54 % 0 in /  0.0 mm
09:20 82.4 °F /  28.0 °C 64.6 °F /  18.1 °C 29.7 in /  1006.0 hPa ESE 7 mph /  11.3 km/h 8 mph /  12.9 km/h 55 % 0 in /  0.0 mm
09:30 83.1 °F /  28.4 °C 64.2 °F /  17.9 °C 29.7 in /  1006.0 hPa East 3 mph /  4.8 km/h 8 mph /  12.9 km/h 53 % 0 in /  0.0 mm
09:40 83.7 °F /  28.7 °C 64.2 °F /  17.9 °C 29.7 in /  1006.0 hPa SE 6 mph /  9.7 km/h 6 mph /  9.7 km/h 52 % 0 in /  0.0 mm
09:50 83.5 °F /  28.6 °C 64 °F /  17.8 °C 29.7 in /  1006.0 hPa SE 5 mph /  8.0 km/h 11 mph /  17.7 km/h 52 % 0 in /  0.0 mm
10:00 82.6 °F /  28.1 °C 63.7 °F /  17.6 °C 29.7 in /  1006.0 hPa ESE 6 mph /  9.7 km/h 8 mph /  12.9 km/h 53 % 0 in /  0.0 mm
10:10 82.8 °F /  28.2 °C 63.9 °F /  17.7 °C 29.7 in /  1005.0 hPa ESE 5 mph /  8.0 km/h 7 mph /  11.3 km/h 53 % 0 in /  0.0 mm
10:20 83.8 °F /  28.8 °C 64.9 °F /  18.3 °C 29.7 in /  1006.0 hPa SE 2 mph /  3.2 km/h 9 mph /  14.5 km/h 53 % 0 in /  0.0 mm
10:30 84 °F /  28.9 °C 65.7 °F /  18.7 °C 29.7 in /  1006.0 hPa SE 2 mph /  3.2 km/h 7 mph /  11.3 km/h 54 % 0 in /  0.0 mm
10:40 84.2 °F /  29.0 °C 64.8 °F /  18.2 °C 29.7 in /  1006.0 hPa SE 3 mph /  4.8 km/h 6 mph /  9.7 km/h 52 % 0 in /  0.0 mm
10:50 83.1 °F /  28.4 °C 64.2 °F /  17.9 °C 29.7 in /  1006.0 hPa SSE 2 mph /  3.2 km/h 6 mph /  9.7 km/h 53 % 0 in /  0.0 mm
10:52 80.4 °F /  26.9 °C 66.7 °F /  19.3 °C 29.7 in /  1007.0 hPa ENE 5.9 mph /  9.5 km/h 5.9 mph /  9.5 km/h 63 % 0 in /  0.0 mm
10:57 80.2 °F /  26.8 °C 66 °F /  18.9 °C 29.7 in /  1007.0 hPa ESE 3.6 mph /  5.8 km/h 3.6 mph /  5.8 km/h 62 % 0 in /  0.0 mm
11:00 85.3 °F /  29.6 °C 64.6 °F /  18.1 °C 29.7 in /  1006.0 hPa South 2 mph /  3.2 km/h 8 mph /  12.9 km/h 50 % 0 in /  0.0 mm
11:02 80.4 °F /  26.9 °C 65.7 °F /  18.7 °C 29.7 in /  1007.0 hPa ENE 6.9 mph /  11.1 km/h 6.9 mph /  11.1 km/h 61 % 0 in /  0.0 mm
11:07 80.6 °F /  27.0 °C 65.8 °F /  18.8 °C 29.7 in /  1007.0 hPa ENE 4.6 mph /  7.4 km/h 4.6 mph /  7.4 km/h 61 % 0 in /  0.0 mm
11:10 84.7 °F /  29.3 °C 63.5 °F /  17.5 °C 29.6 in /  1003.9 hPa SSW 3 mph /  4.8 km/h 4 mph /  6.4 km/h 49 % 0 in /  0.0 mm
11:12 80.8 °F /  27.1 °C 66 °F /  18.9 °C 29.7 in /  1007.0 hPa NNE 6 mph /  9.7 km/h 6 mph /  9.7 km/h 61 % 0 in /  0.0 mm
11:17 81.3 °F /  27.4 °C 65.7 °F /  18.7 °C 29.7 in /  1007.0 hPa East 5.8 mph /  9.3 km/h 5.8 mph /  9.3 km/h 59 % 0 in /  0.0 mm
11:20 84.7 °F /  29.3 °C 63.5 °F /  17.5 °C 29.6 in /  1003.9 hPa South 6 mph /  9.7 km/h 6 mph /  9.7 km/h 49 % 0 in /  0.0 mm
11:22 82.4 °F /  28.0 °C 66.6 °F /  19.2 °C 29.7 in /  1007.0 hPa ENE 6.9 mph /  11.1 km/h 6.9 mph /  11.1 km/h 59 % 0 in /  0.0 mm
11:27 81.5 °F /  27.5 °C 65.3 °F /  18.5 °C 29.7 in /  1007.0 hPa ESE 6.9 mph /  11.1 km/h 6.9 mph /  11.1 km/h 58 % 0 in /  0.0 mm
11:30 85.6 °F /  29.8 °C 64.2 °F /  17.9 °C 29.6 in /  1003.9 hPa SSW 3 mph /  4.8 km/h 6 mph /  9.7 km/h 49 % 0 in /  0.0 mm
11:32 82.2 °F /  27.9 °C 66 °F /  18.9 °C 29.7 in /  1007.0 hPa East 6.4 mph /  10.3 km/h 6.4 mph /  10.3 km/h 58 % 0 in /  0.0 mm
11:37 81.9 °F /  27.7 °C 65.7 °F /  18.7 °C 29.7 in /  1007.0 hPa East 6.9 mph /  11.1 km/h 6.9 mph /  11.1 km/h 58 % 0 in /  0.0 mm
11:40 86.4 °F /  30.2 °C 63.9 °F /  17.7 °C 29.6 in /  1003.9 hPa SSW 2 mph /  3.2 km/h 5 mph /  8.0 km/h 47 % 0 in /  0.0 mm
11:42 81 °F /  27.2 °C 64.8 °F /  18.2 °C 29.7 in /  1006.0 hPa East 8.1 mph /  13.0 km/h 8.1 mph /  13.0 km/h 58 % 0 in /  0.0 mm
11:47 81.5 °F /  27.5 °C 65.8 °F /  18.8 °C 29.7 in /  1006.0 hPa ESE 8.1 mph /  13.0 km/h 8.1 mph /  13.0 km/h 59 % 0 in /  0.0 mm
11:52 81.9 °F /  27.7 °C 66 °F /  18.9 °C 29.7 in /  1006.0 hPa ESE 9.2 mph /  14.8 km/h 9.2 mph /  14.8 km/h 59 % 0 in /  0.0 mm
11:57 81.5 °F /  27.5 °C 65.8 °F /  18.8 °C 29.7 in /  1007.0 hPa ESE 10.4 mph /  16.7 km/h 10.4 mph /  16.7 km/h 59 % 0 in /  0.0 mm
12:02 81.9 °F /  27.7 °C 66 °F /  18.9 °C 29.7 in /  1007.0 hPa SSE 12.7 mph /  20.4 km/h 12.7 mph /  20.4 km/h 59 % 0 in /  0.0 mm
12:07 82 °F /  27.8 °C 65.8 °F /  18.8 °C 29.7 in /  1007.0 hPa SE 8.1 mph /  13.0 km/h 8.1 mph /  13.0 km/h 58 % 0 in /  0.0 mm
12:12 83.3 °F /  28.5 °C 66.9 °F /  19.4 °C 29.7 in /  1006.0 hPa East 7.6 mph /  12.2 km/h 7.6 mph /  12.2 km/h 58 % 0 in /  0.0 mm
12:17 82.8 °F /  28.2 °C 66.6 °F /  19.2 °C 29.7 in /  1006.0 hPa East 10.4 mph /  16.7 km/h 10.4 mph /  16.7 km/h 58 % 0 in /  0.0 mm
12:20 83.3 °F /  28.5 °C 66.9 °F /  19.4 °C 29.7 in /  1006.0 hPa East 5.8 mph /  9.3 km/h 5.9 mph /  9.5 km/h 58 % 0 in /  0.0 mm
12:25 83.7 °F /  28.7 °C 66.4 °F /  19.1 °C 29.7 in /  1006.0 hPa ESE 10.7 mph /  17.2 km/h 10.7 mph /  17.2 km/h 56 % 0 in /  0.0 mm
12:30 82.6 °F /  28.1 °C 65.8 °F /  18.8 °C 29.7 in /  1006.0 hPa ESE 11.5 mph /  18.5 km/h 11.5 mph /  18.5 km/h 57 % 0 in /  0.0 mm
12:35 83.8 °F /  28.8 °C 66.9 °F /  19.4 °C 29.7 in /  1006.0 hPa ESE 8.5 mph /  13.7 km/h 8.5 mph /  13.7 km/h 57 % 0 in /  0.0 mm
12:40 83.1 °F /  28.4 °C 65.8 °F /  18.8 °C 29.7 in /  1006.0 hPa East 12.7 mph /  20.4 km/h 12.7 mph /  20.4 km/h 56 % 0 in /  0.0 mm
12:45 82.4 °F /  28.0 °C 65.1 °F /  18.4 °C 29.7 in /  1006.0 hPa East 9.2 mph /  14.8 km/h 9.2 mph /  14.8 km/h 56 % 0 in /  0.0 mm
12:50 82.4 °F /  28.0 °C 65.1 °F /  18.4 °C 29.7 in /  1006.0 hPa ENE 10.4 mph /  16.7 km/h 10.4 mph /  16.7 km/h 56 % 0 in /  0.0 mm
12:55 82.6 °F /  28.1 °C 64.8 °F /  18.2 °C 29.7 in /  1006.0 hPa East 11.5 mph /  18.5 km/h 11.5 mph /  18.5 km/h 55 % 0 in /  0.0 mm
13:00 82.8 °F /  28.2 °C 64.9 °F /  18.3 °C 29.7 in /  1006.0 hPa ESE 11.5 mph /  18.5 km/h 11.5 mph /  18.5 km/h 55 % 0 in /  0.0 mm
13:05 82.6 °F /  28.1 °C 64.2 °F /  17.9 °C 29.7 in /  1006.0 hPa East 11.5 mph /  18.5 km/h 11.5 mph /  18.5 km/h 54 % 0 in /  0.0 mm
13:10 83.7 °F /  28.7 °C 65.8 °F /  18.8 °C 29.7 in /  1006.0 hPa ESE 5.9 mph /  9.5 km/h 5.9 mph /  9.5 km/h 55 % 0 in /  0.0 mm
13:15 83.1 °F /  28.4 °C 64.8 °F /  18.2 °C 29.7 in /  1006.0 hPa NE 10.4 mph /  16.7 km/h 10.4 mph /  16.7 km/h 54 % 0 in /  0.0 mm
13:20 83.1 °F /  28.4 °C 64.8 °F /  18.2 °C 29.7 in /  1006.0 hPa East 11.4 mph /  18.3 km/h 11.4 mph /  18.3 km/h 54 % 0 in /  0.0 mm
13:25 83.3 °F /  28.5 °C 64.9 °F /  18.3 °C 29.7 in /  1006.0 hPa East 9.7 mph /  15.6 km/h 9.7 mph /  15.6 km/h 54 % 0 in /  0.0 mm
13:30 82.9 °F /  28.3 °C 64.6 °F /  18.1 °C 29.7 in /  1006.0 hPa ENE 12.7 mph /  20.4 km/h 12.7 mph /  20.4 km/h 54 % 0 in /  0.0 mm
13:35 82.4 °F /  28.0 °C 64 °F /  17.8 °C 29.7 in /  1006.0 hPa ENE 11.5 mph /  18.5 km/h 11.5 mph /  18.5 km/h 54 % 0 in /  0.0 mm
13:40 82.4 °F /  28.0 °C 64.6 °F /  18.1 °C 29.7 in /  1006.0 hPa ESE 10.4 mph /  16.7 km/h 10.4 mph /  16.7 km/h 55 % 0 in /  0.0 mm
13:45 82 °F /  27.8 °C 64.2 °F /  17.9 °C 29.7 in /  1006.0 hPa ESE 12.7 mph /  20.4 km/h 12.7 mph /  20.4 km/h 55 % 0 in /  0.0 mm
16:43 86 °F /  30.0 °C 64 °F /  17.8 °C 29.6 in /  1003.9 hPa SW 8.1 mph /  13.0 km/h 8.1 mph /  13.0 km/h 48 % 0 in /  0.0 mm
16:48 85.8 °F /  29.9 °C 63.9 °F /  17.7 °C 29.6 in /  1003.9 hPa South 4.6 mph /  7.4 km/h 4.6 mph /  7.4 km/h 48 % 0 in /  0.0 mm
16:53 85.5 °F /  29.7 °C 63.5 °F /  17.5 °C 29.6 in /  1003.9 hPa SW 6.9 mph /  11.1 km/h 6.9 mph /  11.1 km/h 48 % 0 in /  0.0 mm
16:58 85.6 °F /  29.8 °C 63.7 °F /  17.6 °C 29.6 in /  1003.9 hPa West 5.8 mph /  9.3 km/h 5.8 mph /  9.3 km/h 48 % 0 in /  0.0 mm
17:03 85.8 °F /  29.9 °C 63.9 °F /  17.7 °C 29.6 in /  1003.9 hPa SW 3.6 mph /  5.8 km/h 3.6 mph /  5.8 km/h 48 % 0 in /  0.0 mm
17:08 86 °F /  30.0 °C 64 °F /  17.8 °C 29.6 in /  1003.9 hPa SSW 2.4 mph /  3.9 km/h 2.4 mph /  3.9 km/h 48 % 0 in /  0.0 mm
17:13 85.6 °F /  29.8 °C 63.7 °F /  17.6 °C 29.6 in /  1003.9 hPa SW 7.4 mph /  11.9 km/h 7.4 mph /  11.9 km/h 48 % 0 in /  0.0 mm
17:18 84 °F /  28.9 °C 63.3 °F /  17.4 °C 29.6 in /  1003.9 hPa SW 8.1 mph /  13.0 km/h 8.1 mph /  13.0 km/h 50 % 0 in /  0.0 mm
17:23 84 °F /  28.9 °C 63.3 °F /  17.4 °C 29.6 in /  1003.9 hPa West 7.4 mph /  11.9 km/h 7.4 mph /  11.9 km/h 50 % 0 in /  0.0 mm
17:28 84.4 °F /  29.1 °C 63.1 °F /  17.3 °C 29.6 in /  1003.9 hPa SW 10.4 mph /  16.7 km/h 10.4 mph /  16.7 km/h 49 % 0 in /  0.0 mm
17:33 84.4 °F /  29.1 °C 63.1 °F /  17.3 °C 29.6 in /  1003.9 hPa SW 8.1 mph /  13.0 km/h 8.1 mph /  13.0 km/h 49 % 0 in /  0.0 mm
17:34 84.6 °F /  29.2 °C 63.3 °F /  17.4 °C 29.6 in /  1003.9 hPa WSW 5.8 mph /  9.3 km/h 5.8 mph /  9.3 km/h 49 % 0 in /  0.0 mm
17:39 84 °F /  28.9 °C 63.3 °F /  17.4 °C 29.6 in /  1003.9 hPa West 8.1 mph /  13.0 km/h 8.1 mph /  13.0 km/h 50 % 0 in /  0.0 mm
17:44 83.5 °F /  28.6 °C 63.3 °F /  17.4 °C 29.6 in /  1003.9 hPa WSW 5.8 mph /  9.3 km/h 6 mph /  9.7 km/h 51 % 0 in /  0.0 mm
17:49 84.4 °F /  29.1 °C 63.7 °F /  17.6 °C 29.6 in /  1003.9 hPa SW 11.5 mph /  18.5 km/h 11.5 mph /  18.5 km/h 50 % 0 in /  0.0 mm
17:54 84.4 °F /  29.1 °C 63.7 °F /  17.6 °C 29.6 in /  1003.9 hPa South 5.8 mph /  9.3 km/h 5.8 mph /  9.3 km/h 50 % 0 in /  0.0 mm
17:59 85.3 °F /  29.6 °C 64 °F /  17.8 °C 29.6 in /  1002.9 hPa SE 3.5 mph /  5.6 km/h 3.5 mph /  5.6 km/h 49 % 0 in /  0.0 mm
18:04 84.9 °F /  29.4 °C 63.7 °F /  17.6 °C 29.6 in /  1002.9 hPa SSW 6.9 mph /  11.1 km/h 6.9 mph /  11.1 km/h 49 % 0 in /  0.0 mm
18:09 84.7 °F /  29.3 °C 63.5 °F /  17.5 °C 29.6 in /  1002.9 hPa SW 4.6 mph /  7.4 km/h 4.6 mph /  7.4 km/h 49 % 0 in /  0.0 mm
18:14 83.7 °F /  28.7 °C 63 °F /  17.2 °C 29.6 in /  1002.9 hPa SW 4.3 mph /  6.9 km/h 4.3 mph /  6.9 km/h 50 % 0 in /  0.0 mm
18:19 83.1 °F /  28.4 °C 62.6 °F /  17.0 °C 29.6 in /  1002.9 hPa SW 2.3 mph /  3.7 km/h 2.3 mph /  3.7 km/h 50 % 0 in /  0.0 mm
18:24 82.8 °F /  28.2 °C 62.2 °F /  16.8 °C 29.6 in /  1002.9 hPa South 4.6 mph /  7.4 km/h 4.6 mph /  7.4 km/h 50 % 0 in /  0.0 mm
18:29 82.8 °F /  28.2 °C 62.2 °F /  16.8 °C 29.6 in /  1002.9 hPa SW 3.5 mph /  5.6 km/h 3.5 mph /  5.6 km/h 50 % 0 in /  0.0 mm
18:34 82.6 °F /  28.1 °C 62.6 °F /  17.0 °C 29.6 in /  1002.9 hPa SW 3.5 mph /  5.6 km/h 3.5 mph /  5.6 km/h 51 % 0 in /  0.0 mm
18:39 82.2 °F /  27.9 °C 62.2 °F /  16.8 °C 29.6 in /  1002.9 hPa SW 3.5 mph /  5.6 km/h 3.5 mph /  5.6 km/h 51 % 0 in /  0.0 mm
18:44 82 °F /  27.8 °C 62.1 °F /  16.7 °C 29.6 in /  1002.9 hPa South 2.3 mph /  3.7 km/h 2.3 mph /  3.7 km/h 51 % 0 in /  0.0 mm
18:49 81.5 °F /  27.5 °C 61.5 °F /  16.4 °C 29.6 in /  1002.9 hPa SW 6.9 mph /  11.1 km/h 6.9 mph /  11.1 km/h 51 % 0 in /  0.0 mm
18:54 81 °F /  27.2 °C 61.7 °F /  16.5 °C 29.6 in /  1002.9 hPa SSW 4.7 mph /  7.6 km/h 4.7 mph /  7.6 km/h 52 % 0 in /  0.0 mm
18:59 81 °F /  27.2 °C 61.7 °F /  16.5 °C 29.6 in /  1002.9 hPa WSW 3.5 mph /  5.6 km/h 3.5 mph /  5.6 km/h 52 % 0 in /  0.0 mm
19:04 81.3 °F /  27.4 °C 62.1 °F /  16.7 °C 29.6 in /  1002.9 hPa SSW 8.5 mph /  13.7 km/h 8.5 mph /  13.7 km/h 52 % 0 in /  0.0 mm
19:09 82 °F /  27.8 °C 63.1 °F /  17.3 °C 29.6 in /  1002.9 hPa South 5.8 mph /  9.3 km/h 5.8 mph /  9.3 km/h 53 % 0 in /  0.0 mm
19:14 81.9 °F /  27.7 °C 63.1 °F /  17.3 °C 29.6 in /  1002.9 hPa WSW 8.1 mph /  13.0 km/h 8.1 mph /  13.0 km/h 53 % 0 in /  0.0 mm
19:19 81.9 °F /  27.7 °C 63.1 °F /  17.3 °C 29.6 in /  1002.9 hPa WSW 3.5 mph /  5.6 km/h 4.9 mph /  7.9 km/h 53 % 0 in /  0.0 mm
19:20 74.1 °F /  23.4 °C 64.9 °F /  18.3 °C 29.6 in /  1002.9 hPa Calm   1 mph /  1.6 km/h 73 % 0 in /  0.0 mm
19:24 81.5 °F /  27.5 °C 62.8 °F /  17.1 °C 29.6 in /  1002.9 hPa SW 4 mph /  6.4 km/h 4 mph /  6.4 km/h 53 % 0 in /  0.0 mm
19:29 81.5 °F /  27.5 °C 63.3 °F /  17.4 °C 29.6 in /  1001.9 hPa SW 6.9 mph /  11.1 km/h 6.9 mph /  11.1 km/h 54 % 0 in /  0.0 mm
19:30 73.8 °F /  23.2 °C 64.9 °F /  18.3 °C 29.6 in /  1002.9 hPa SW 2 mph /  3.2 km/h 2 mph /  3.2 km/h 74 % 0 in /  0.0 mm
19:34 81.7 °F /  27.6 °C 63.3 °F /  17.4 °C 29.6 in /  1001.9 hPa WSW 5.8 mph /  9.3 km/h 5.8 mph /  9.3 km/h 54 % 0 in /  0.0 mm
19:39 81.1 °F /  27.3 °C 63 °F /  17.2 °C 29.6 in /  1001.9 hPa WSW 9.2 mph /  14.8 km/h 9.2 mph /  14.8 km/h 54 % 0 in /  0.0 mm
19:40 73.8 °F /  23.2 °C 64.9 °F /  18.3 °C 29.6 in /  1003.9 hPa Calm   2 mph /  3.2 km/h 74 % 0 in /  0.0 mm
19:44 81 °F /  27.2 °C 62.8 °F /  17.1 °C 29.6 in /  1001.9 hPa SW 5.8 mph /  9.3 km/h 5.8 mph /  9.3 km/h 54 % 0 in /  0.0 mm
19:49 81 °F /  27.2 °C 62.8 °F /  17.1 °C 29.6 in /  1001.9 hPa SW 4.6 mph /  7.4 km/h 4.6 mph /  7.4 km/h 54 % 0 in /  0.0 mm
19:50 73.8 °F /  23.2 °C 64.9 °F /  18.3 °C 29.6 in /  1003.9 hPa Calm   1 mph /  1.6 km/h 74 % 0 in /  0.0 mm
19:54 81 °F /  27.2 °C 62.8 °F /  17.1 °C 29.6 in /  1001.9 hPa SW 3.6 mph /  5.8 km/h 3.6 mph /  5.8 km/h 54 % 0 in /  0.0 mm
19:59 80.8 °F /  27.1 °C 63.1 °F /  17.3 °C 29.6 in /  1001.9 hPa WNW 3.6 mph /  5.8 km/h 3.6 mph /  5.8 km/h 55 % 0 in /  0.0 mm
20:00 73.8 °F /  23.2 °C 64.9 °F /  18.3 °C 29.6 in /  1003.9 hPa NE 1 mph /  1.6 km/h 1 mph /  1.6 km/h 74 % 0 in /  0.0 mm
20:04 80.6 °F /  27.0 °C 63 °F /  17.2 °C 29.6 in /  1001.9 hPa SW 4.6 mph /  7.4 km/h 4.6 mph /  7.4 km/h 55 % 0 in /  0.0 mm
20:09 80.2 °F /  26.8 °C 63.1 °F /  17.3 °C 29.6 in /  1001.9 hPa SW 5.8 mph /  9.3 km/h 5.8 mph /  9.3 km/h 56 % 0 in /  0.0 mm
20:10 73.8 °F /  23.2 °C 64.9 °F /  18.3 °C 29.6 in /  1002.9 hPa NNE 2 mph /  3.2 km/h 3 mph /  4.8 km/h 74 % 0 in /  0.0 mm
20:14 80.1 °F /  26.7 °C 63.5 °F /  17.5 °C 29.6 in /  1001.9 hPa SSW 4.6 mph /  7.4 km/h 4.6 mph /  7.4 km/h 57 % 0 in /  0.0 mm
20:19 79.9 °F /  26.6 °C 63.3 °F /  17.4 °C 29.6 in /  1001.9 hPa WSW 6.9 mph /  11.1 km/h 6.9 mph /  11.1 km/h 57 % 0 in /  0.0 mm
20:20 73.4 °F /  23.0 °C 64.6 °F /  18.1 °C 29.6 in /  1003.9 hPa Calm   2 mph /  3.2 km/h 74 % 0 in /  0.0 mm
20:24 79.7 °F /  26.5 °C 63.7 °F /  17.6 °C 29.6 in /  1001.9 hPa SW 5.4 mph /  8.7 km/h 5.4 mph /  8.7 km/h 58 % 0 in /  0.0 mm
20:29 79.5 °F /  26.4 °C 63.3 °F /  17.4 °C 29.6 in /  1000.9 hPa SW 4.6 mph /  7.4 km/h 4.6 mph /  7.4 km/h 58 % 0 in /  0.0 mm
20:30 73.4 °F /  23.0 °C 64.9 °F /  18.3 °C 29.6 in /  1003.9 hPa NE 1 mph /  1.6 km/h 1 mph /  1.6 km/h 75 % 0 in /  0.0 mm
20:34 79.5 °F /  26.4 °C 63.3 °F /  17.4 °C 29.6 in /  1000.9 hPa SW 3.5 mph /  5.6 km/h 3.5 mph /  5.6 km/h 58 % 0 in /  0.0 mm
20:39 79.5 °F /  26.4 °C 63.9 °F /  17.7 °C 29.6 in /  1000.9 hPa WSW 3.5 mph /  5.6 km/h 3.5 mph /  5.6 km/h 59 % 0 in /  0.0 mm
20:40 73.4 °F /  23.0 °C 65.5 °F /  18.6 °C 29.6 in /  1002.9 hPa NE 1 mph /  1.6 km/h 1 mph /  1.6 km/h 76 % 0 in /  0.0 mm
20:44 79.5 °F /  26.4 °C 63.9 °F /  17.7 °C 29.6 in /  1001.9 hPa East 2.3 mph /  3.7 km/h 2.3 mph /  3.7 km/h 59 % 0 in /  0.0 mm
20:49 79.2 °F /  26.2 °C 64 °F /  17.8 °C 29.6 in /  1001.9 hPa WSW 5.8 mph /  9.3 km/h 5.8 mph /  9.3 km/h 60 % 0 in /  0.0 mm
20:50 73.2 °F /  22.9 °C 65.7 °F /  18.7 °C 29.6 in /  1003.9 hPa ENE 1 mph /  1.6 km/h 2 mph /  3.2 km/h 77 % 0 in /  0.0 mm
20:54 78.8 °F /  26.0 °C 64.2 °F /  17.9 °C 29.6 in /  1001.9 hPa WSW 3.5 mph /  5.6 km/h 3.5 mph /  5.6 km/h 61 % 0 in /  0.0 mm
20:59 78.6 °F /  25.9 °C 64 °F /  17.8 °C 29.6 in /  1001.9 hPa SW 3.5 mph /  5.6 km/h 3.5 mph /  5.6 km/h 61 % 0 in /  0.0 mm
21:00 73 °F /  22.8 °C 65.8 °F /  18.8 °C 29.6 in /  1003.9 hPa NE 2 mph /  3.2 km/h 2 mph /  3.2 km/h 78 % 0 in /  0.0 mm
21:04 78.4 °F /  25.8 °C 64.2 °F /  17.9 °C 29.6 in /  1001.9 hPa SSW 2.3 mph /  3.7 km/h 2.3 mph /  3.7 km/h 62 % 0 in /  0.0 mm
21:09 78.1 °F /  25.6 °C 64 °F /  17.8 °C 29.6 in /  1001.9 hPa SSW 4.6 mph /  7.4 km/h 4.6 mph /  7.4 km/h 62 % 0 in /  0.0 mm
21:10 72.9 °F /  22.7 °C 65.7 °F /  18.7 °C 29.6 in /  1003.9 hPa NNE 2 mph /  3.2 km/h 3 mph /  4.8 km/h 78 % 0 in /  0.0 mm
21:14 77.9 °F /  25.5 °C 63.9 °F /  17.7 °C 29.6 in /  1001.9 hPa SW 3.6 mph /  5.8 km/h 3.6 mph /  5.8 km/h 62 % 0 in /  0.0 mm
21:19 77.7 °F /  25.4 °C 64 °F /  17.8 °C 29.6 in /  1001.9 hPa West 2.3 mph /  3.7 km/h 2.3 mph /  3.7 km/h 63 % 0 in /  0.0 mm
21:20 72.7 °F /  22.6 °C 65.5 °F /  18.6 °C 29.6 in /  1003.9 hPa NNE 1 mph /  1.6 km/h 3 mph /  4.8 km/h 78 % 0 in /  0.0 mm
21:24 77.7 °F /  25.4 °C 64 °F /  17.8 °C 29.6 in /  1001.9 hPa WSW 2.4 mph /  3.9 km/h 2.4 mph /  3.9 km/h 63 % 0 in /  0.0 mm
21:29 77.5 °F /  25.3 °C 63.9 °F /  17.7 °C 29.6 in /  1001.9 hPa SW 2.3 mph /  3.7 km/h 2.3 mph /  3.7 km/h 63 % 0 in /  0.0 mm
21:30 72.7 °F /  22.6 °C 65.5 °F /  18.6 °C 29.6 in /  1003.9 hPa NE 2 mph /  3.2 km/h 4 mph /  6.4 km/h 78 % 0 in /  0.0 mm
21:34 77.4 °F /  25.2 °C 64.2 °F /  17.9 °C 29.6 in /  1001.9 hPa SW 2.3 mph /  3.7 km/h 2.3 mph /  3.7 km/h 64 % 0 in /  0.0 mm
21:39 77.2 °F /  25.1 °C 64 °F /  17.8 °C 29.6 in /  1001.9 hPa SSW 3.5 mph /  5.6 km/h 3.5 mph /  5.6 km/h 64 % 0 in /  0.0 mm
21:40 72.7 °F /  22.6 °C 65.5 °F /  18.6 °C 29.6 in /  1003.9 hPa NE 1 mph /  1.6 km/h 1 mph /  1.6 km/h 78 % 0 in /  0.0 mm
21:44 76.8 °F /  24.9 °C 64.2 °F /  17.9 °C 29.6 in /  1000.9 hPa SW 3.5 mph /  5.6 km/h 3.5 mph /  5.6 km/h 65 % 0 in /  0.0 mm
21:49 76.6 °F /  24.8 °C 64 °F /  17.8 °C 29.6 in /  1000.9 hPa SW 3.5 mph /  5.6 km/h 3.5 mph /  5.6 km/h 65 % 0 in /  0.0 mm
21:50 72.7 °F /  22.6 °C 65.5 °F /  18.6 °C 29.6 in /  1003.9 hPa Calm   2 mph /  3.2 km/h 78 % 0 in /  0.0 mm
21:54 76.5 °F /  24.7 °C 63.9 °F /  17.7 °C 29.6 in /  1000.9 hPa West 2.3 mph /  3.7 km/h 2.3 mph /  3.7 km/h 65 % 0 in /  0.0 mm
21:59 76.5 °F /  24.7 °C 64.2 °F /  17.9 °C 29.6 in /  1001.9 hPa WSW 2.3 mph /  3.7 km/h 2.3 mph /  3.7 km/h 66 % 0 in /  0.0 mm
22:00 72.7 °F /  22.6 °C 65.5 °F /  18.6 °C 29.6 in /  1003.9 hPa Calm   2 mph /  3.2 km/h 78 % 0 in /  0.0 mm
22:04 76.5 °F /  24.7 °C 64.2 °F /  17.9 °C 29.6 in /  1001.9 hPa West 2.9 mph /  4.7 km/h 2.9 mph /  4.7 km/h 66 % 0 in /  0.0 mm
22:09 76.3 °F /  24.6 °C 64 °F /  17.8 °C 29.6 in /  1001.9 hPa Calm     66 % 0 in /  0.0 mm
22:10 72.9 °F /  22.7 °C 66 °F /  18.9 °C 29.6 in /  1003.9 hPa NNW 2 mph /  3.2 km/h 3 mph /  4.8 km/h 79 % 0 in /  0.0 mm
22:14 76.3 °F /  24.6 °C 64 °F /  17.8 °C 29.6 in /  1001.9 hPa West 1.6 mph /  2.6 km/h   66 % 0 in /  0.0 mm
22:19 76.3 °F /  24.6 °C 64 °F /  17.8 °C 29.6 in /  1001.9 hPa West 2.3 mph /  3.7 km/h 2.3 mph /  3.7 km/h 66 % 0 in /  0.0 mm
22:20 72.9 °F /  22.7 °C 66 °F /  18.9 °C 29.6 in /  1003.9 hPa Calm     79 % 0 in /  0.0 mm
22:24 76.3 °F /  24.6 °C 64.6 °F /  18.1 °C 29.6 in /  1001.9 hPa SW 2.3 mph /  3.7 km/h 2.3 mph /  3.7 km/h 67 % 0 in /  0.0 mm
22:29 76.1 °F /  24.5 °C 64.2 °F /  17.9 °C 29.6 in /  1001.9 hPa WSW 1.2 mph /  1.9 km/h   67 % 0 in /  0.0 mm
22:30 72.3 °F /  22.4 °C 65.1 °F /  18.4 °C 29.6 in /  1003.9 hPa NE 5 mph /  8.0 km/h 5 mph /  8.0 km/h 78 % 0 in /  0.0 mm
22:34 76.1 °F /  24.5 °C 64.2 °F /  17.9 °C 29.6 in /  1001.9 hPa West 2.3 mph /  3.7 km/h 2.3 mph /  3.7 km/h 67 % 0 in /  0.0 mm
22:39 75.9 °F /  24.4 °C 64.2 °F /  17.9 °C 29.6 in /  1001.9 hPa WSW 2.3 mph /  3.7 km/h   67 % 0 in /  0.0 mm
22:40 71.6 °F /  22.0 °C 64 °F /  17.8 °C 29.6 in /  1003.9 hPa East 5 mph /  8.0 km/h 6 mph /  9.7 km/h 77 % 0 in /  0.0 mm
22:44 75.9 °F /  24.4 °C 64.6 °F /  18.1 °C 29.6 in /  1001.9 hPa Calm     68 % 0 in /  0.0 mm
22:49 75.7 °F /  24.3 °C 64.4 °F /  18.0 °C 29.6 in /  1001.9 hPa WSW 2.3 mph /  3.7 km/h 2.3 mph /  3.7 km/h 68 % 0 in /  0.0 mm
22:50 71.4 °F /  21.9 °C 63.5 °F /  17.5 °C 29.6 in /  1003.9 hPa East 7 mph /  11.3 km/h 8 mph /  12.9 km/h 76 % 0 in /  0.0 mm
22:54 75.7 °F /  24.3 °C 64.4 °F /  18.0 °C 29.6 in /  1001.9 hPa WSW 1.2 mph /  1.9 km/h   68 % 0 in /  0.0 mm
22:59 75.6 °F /  24.2 °C 64.2 °F /  17.9 °C 29.6 in /  1001.9 hPa SW 1.2 mph /  1.9 km/h   68 % 0 in /  0.0 mm
23:00 71.2 °F /  21.8 °C 63 °F /  17.2 °C 29.6 in /  1003.9 hPa East 3 mph /  4.8 km/h 6 mph /  9.7 km/h 75 % 0 in /  0.0 mm
23:04 75.2 °F /  24.0 °C 63.9 °F /  17.7 °C 29.6 in /  1001.9 hPa Calm     68 % 0 in /  0.0 mm
23:09 75 °F /  23.9 °C 64.6 °F /  18.1 °C 29.6 in /  1001.9 hPa SW 1.6 mph /  2.6 km/h 1.6 mph /  2.6 km/h 70 % 0 in /  0.0 mm
23:10 71.2 °F /  21.8 °C 63 °F /  17.2 °C 29.6 in /  1003.9 hPa East 5 mph /  8.0 km/h 7 mph /  11.3 km/h 75 % 0 in /  0.0 mm
23:14 74.7 °F /  23.7 °C 64.2 °F /  17.9 °C 29.6 in /  1002.9 hPa SW 2.3 mph /  3.7 km/h 2.3 mph /  3.7 km/h 70 % 0 in /  0.0 mm
23:19 74.5 °F /  23.6 °C 64.6 °F /  18.1 °C 29.6 in /  1002.9 hPa Calm     71 % 0 in /  0.0 mm
23:20 70.9 °F /  21.6 °C 62.6 °F /  17.0 °C 29.6 in /  1003.9 hPa East 3 mph /  4.8 km/h 5 mph /  8.0 km/h 75 % 0 in /  0.0 mm
23:24 74.3 °F /  23.5 °C 64.2 °F /  17.9 °C 29.6 in /  1002.9 hPa Calm     71 % 0 in /  0.0 mm
23:29 74.3 °F /  23.5 °C 64.2 °F /  17.9 °C 29.6 in /  1002.9 hPa SW 1.2 mph /  1.9 km/h   71 % 0 in /  0.0 mm
23:30 70.5 °F /  21.4 °C 62.2 °F /  16.8 °C 29.6 in /  1003.9 hPa ENE 2 mph /  3.2 km/h 4 mph /  6.4 km/h 75 % 0 in /  0.0 mm
23:34 74.1 °F /  23.4 °C 64 °F /  17.8 °C 29.6 in /  1002.9 hPa Calm     71 % 0 in /  0.0 mm
23:39 74.1 °F /  23.4 °C 64.6 °F /  18.1 °C 29.6 in /  1002.9 hPa SW 1.4 mph /  2.3 km/h 1.4 mph /  2.3 km/h 72 % 0 in /  0.0 mm
23:40 70.2 °F /  21.2 °C 61.9 °F /  16.6 °C 29.6 in /  1003.9 hPa ENE 2 mph /  3.2 km/h 4 mph /  6.4 km/h 75 % 0 in /  0.0 mm
23:44 74.1 °F /  23.4 °C 64.6 °F /  18.1 °C 29.6 in /  1002.9 hPa Calm     72 % 0 in /  0.0 mm
23:49 74.1 °F /  23.4 °C 64.6 °F /  18.1 °C 29.6 in /  1002.9 hPa SW 1.2 mph /  1.9 km/h 1.2 mph /  1.9 km/h 72 % 0 in /  0.0 mm
23:50 70 °F /  21.1 °C 61.7 °F /  16.5 °C 29.6 in /  1003.9 hPa NE 2 mph /  3.2 km/h 4 mph /  6.4 km/h 75 % 0 in /  0.0 mm
23:54 74.1 °F /  23.4 °C 64.6 °F /  18.1 °C 29.6 in /  1002.9 hPa SW 1.2 mph /  1.9 km/h 1.4 mph /  2.3 km/h 72 % 0 in /  0.0 mm
23:59 74.1 °F /  23.4 °C 64.9 °F /  18.3 °C 29.6 in /  1002.9 hPa WSW 1.2 mph /  1.9 km/h 1.2 mph /  1.9 km/h 73 % 0 in /  0.0 mm
Meteo Sesrovires
Elogis d' Weather Underground - 3.5 mb

Guio original per  Jim McMurry - jmcmurry@mwt.net Adaptat per a la plantilla per  Wim van der Kuil - Leuven-Template.eu

Trobareu la nostra informacio del temps tambe a:

Weather Underground

AWEKAS